Tarawa Tr, North Carolina
Current Conditions -  °F | °C
As of 7:56 AM on Wednesday 26 Nov 2014 (Local Time) from KNCA Reporting Station
Overcast Overcast  
Wind Chill: 67°   Ceiling: 5500
Heat Index: 67°   Visibility: 10mi
Dew Point: 65°   Wind: 3mph
Humidity: 93%   Direction: 150°SSE
Pressure: 29.72"   Gusts: NA
Location:  34.7353°N, 77.3964°W
Report Text: KNCA 261256Z AUTO 15003KT 10SM FEW042 OVC055 19/18 A2972 RMK AO2 RAB11E49 SLP067 P0001 T01940183
Loading
Personal Weather Stations






























Interactive Weather Map New forecast layout! Learn more

10-Day Weather Forecast

Advertisements
Track Severe Weather on mobile